createdAt,value
2017-09-07T00:01:27.710Z,3.00
2017-09-07T00:03:54.098Z,3.00
2017-09-07T00:06:20.479Z,3.33
2017-09-07T00:08:47.138Z,3.93
2017-09-07T00:11:13.510Z,3.27
2017-09-07T00:13:39.858Z,3.40
2017-09-07T00:16:48.835Z,4.00
2017-09-07T00:19:15.963Z,3.63
2017-09-07T00:21:42.305Z,3.83
2017-09-07T00:24:09.033Z,3.27
2017-09-07T00:26:35.393Z,3.50
2017-09-07T00:29:01.756Z,3.57
2017-09-07T00:31:28.176Z,4.10
2017-09-07T00:33:54.535Z,2.90
2017-09-07T00:36:20.927Z,3.40
2017-09-07T00:38:47.298Z,3.80
2017-09-07T00:41:13.700Z,2.80
2017-09-07T00:43:40.098Z,2.83
2017-09-07T00:46:07.223Z,3.10
2017-09-07T00:48:34.396Z,2.80
2017-09-07T00:51:00.802Z,3.63
2017-09-07T00:53:27.190Z,2.93
2017-09-07T00:55:53.973Z,3.40
2017-09-07T00:58:21.090Z,3.10
2017-09-07T01:00:47.499Z,2.90
2017-09-07T01:03:13.856Z,3.03
2017-09-07T01:05:40.231Z,3.77
2017-09-07T01:08:06.662Z,3.83
2017-09-07T01:10:33.815Z,3.60
2017-09-07T01:13:00.191Z,3.93
2017-09-07T01:15:26.565Z,3.87
2017-09-07T01:17:54.037Z,4.10
2017-09-07T01:20:20.462Z,2.93
2017-09-07T01:22:46.891Z,2.67
2017-09-07T01:25:14.073Z,3.80
2017-09-07T01:27:40.433Z,3.53
2017-09-07T01:30:06.862Z,3.60
2017-09-07T01:32:33.215Z,3.40
2017-09-07T01:35:00.319Z,3.57
2017-09-07T01:37:26.704Z,3.90
2017-09-07T01:39:53.070Z,3.27
2017-09-07T01:42:19.436Z,3.73
2017-09-07T01:44:46.183Z,3.57
2017-09-07T01:47:13.380Z,3.40
2017-09-07T01:49:39.743Z,4.23
2017-09-07T01:52:06.145Z,3.37
2017-09-07T01:54:32.506Z,3.73
2017-09-07T01:56:58.907Z,4.50
2017-09-07T01:59:25.277Z,4.27
2017-09-07T02:01:51.657Z,3.73
2017-09-07T02:04:18.070Z,3.50
2017-09-07T02:06:44.489Z,3.47
2017-09-07T02:09:11.593Z,4.63
2017-09-07T02:11:38.357Z,3.97
2017-09-07T02:14:04.693Z,4.30
2017-09-07T02:16:31.816Z,4.67
2017-09-07T02:18:58.173Z,4.03
2017-09-07T02:21:25.263Z,3.33
2017-09-07T02:23:51.639Z,3.73
2017-09-07T02:26:18.003Z,3.57
2017-09-07T02:28:44.709Z,4.37
2017-09-07T02:31:11.819Z,4.10
2017-09-07T02:33:38.160Z,4.77
2017-09-07T02:36:04.550Z,3.40
2017-09-07T02:38:30.876Z,3.87
2017-09-07T02:40:57.245Z,4.13
2017-09-07T02:43:23.604Z,4.47
2017-09-07T02:45:50.710Z,4.40
2017-09-07T02:48:17.084Z,3.67
2017-09-07T02:50:44.191Z,4.70
2017-09-07T02:53:10.579Z,4.07
2017-09-07T02:55:37.269Z,4.07
2017-09-07T02:58:03.704Z,3.80
2017-09-07T03:00:30.061Z,4.77
2017-09-07T03:02:57.153Z,4.20
2017-09-07T03:05:23.503Z,3.63
2017-09-07T03:07:49.891Z,4.00
2017-09-07T03:10:16.266Z,4.80
2017-09-07T03:12:42.615Z,4.70
2017-09-07T03:15:09.704Z,4.10
2017-09-07T03:17:36.407Z,4.37
2017-09-07T03:20:03.530Z,4.60
2017-09-07T03:22:29.885Z,5.00
2017-09-07T03:24:56.990Z,4.03
2017-09-07T03:27:23.335Z,4.80
2017-09-07T03:29:49.679Z,4.80
2017-09-07T03:32:16.093Z,4.17
2017-09-07T03:34:42.453Z,4.50
2017-09-07T03:37:09.598Z,4.23
2017-09-07T03:39:36.743Z,4.77
2017-09-07T03:44:37.278Z,4.67
2017-09-07T03:47:03.623Z,4.50
2017-09-07T03:49:30.701Z,4.70
2017-09-07T03:51:57.100Z,4.97
2017-09-07T03:54:24.212Z,4.83
2017-09-07T03:56:50.581Z,4.17
2017-09-07T03:59:17.659Z,4.23
2017-09-07T04:01:44.038Z,4.40
2017-09-07T04:04:10.391Z,3.63
2017-09-07T04:06:37.823Z,4.10
2017-09-07T04:09:04.167Z,4.80
2017-09-07T04:11:31.281Z,4.80
2017-09-07T04:13:57.646Z,4.67
2017-09-07T04:16:24.012Z,3.73
2017-09-07T04:18:50.392Z,4.30
2017-09-07T04:21:17.509Z,4.00
2017-09-07T04:23:43.902Z,3.73
2017-09-07T04:26:10.257Z,4.00
2017-09-07T04:28:36.921Z,4.63
2017-09-07T04:31:03.293Z,4.50
2017-09-07T04:33:29.660Z,4.27
2017-09-07T04:35:56.048Z,5.13
2017-09-07T04:38:23.126Z,4.17
2017-09-07T04:40:49.481Z,4.20
2017-09-07T04:43:15.791Z,3.80
2017-09-07T04:45:42.148Z,4.90
2017-09-07T04:48:08.621Z,4.10
2017-09-07T04:50:34.996Z,4.40
2017-09-07T04:53:01.360Z,4.90
2017-09-07T04:55:28.454Z,4.30
2017-09-07T04:57:54.813Z,4.00
2017-09-07T05:00:21.172Z,4.73
2017-09-07T05:02:47.514Z,4.70
2017-09-07T05:05:13.853Z,4.23
2017-09-07T05:07:40.214Z,4.43
2017-09-07T05:10:06.893Z,4.80
2017-09-07T05:12:33.320Z,4.60
2017-09-07T05:14:59.714Z,4.43
2017-09-07T05:17:26.097Z,4.83
2017-09-07T05:19:52.452Z,4.90
2017-09-07T05:22:18.808Z,5.27
2017-09-07T05:24:45.145Z,6.20
2017-09-07T05:27:11.807Z,4.40
2017-09-07T05:29:38.897Z,4.40
2017-09-07T05:32:06.099Z,3.53
2017-09-07T05:34:33.235Z,4.53
2017-09-07T05:36:59.626Z,4.70
2017-09-07T05:39:26.012Z,4.20
2017-09-07T05:41:52.410Z,4.03
2017-09-07T05:44:18.845Z,5.10
2017-09-07T05:46:45.210Z,4.17
2017-09-07T05:49:12.417Z,4.30
2017-09-07T05:51:39.532Z,4.27
2017-09-07T05:54:06.598Z,4.00
2017-09-07T05:56:32.958Z,4.13
2017-09-07T05:58:59.327Z,4.80
2017-09-07T06:01:25.702Z,4.30
2017-09-07T06:03:52.084Z,4.93
2017-09-07T06:06:18.477Z,4.40
2017-09-07T06:08:44.892Z,4.10
2017-09-07T06:11:11.241Z,4.43
2017-09-07T06:13:37.619Z,3.97
2017-09-07T06:16:03.996Z,4.83
2017-09-07T06:18:30.376Z,3.83
2017-09-07T06:20:56.743Z,4.77
2017-09-07T06:23:23.091Z,4.20
2017-09-07T06:25:49.465Z,4.83
2017-09-07T06:28:15.883Z,4.50
2017-09-07T06:30:42.324Z,4.47
2017-09-07T06:33:09.459Z,4.60
2017-09-07T06:35:35.852Z,4.20
2017-09-07T06:38:02.225Z,4.40
2017-09-07T06:40:28.564Z,4.77
2017-09-07T06:42:54.951Z,4.03
2017-09-07T06:45:22.042Z,4.70
2017-09-07T06:47:48.441Z,4.77
2017-09-07T06:50:15.560Z,4.17
2017-09-07T06:52:41.912Z,4.67
2017-09-07T06:55:08.289Z,5.20
2017-09-07T06:57:34.662Z,4.80
2017-09-07T07:00:01.051Z,4.73
2017-09-07T07:02:27.433Z,4.17
2017-09-07T07:04:54.544Z,5.93
2017-09-07T07:07:21.716Z,5.90
2017-09-07T07:09:48.083Z,4.27
2017-09-07T07:12:14.791Z,5.60
2017-09-07T07:14:41.870Z,4.30
2017-09-07T07:17:08.209Z,5.20
2017-09-07T07:19:34.561Z,4.70
2017-09-07T07:22:00.919Z,4.60
2017-09-07T07:24:27.244Z,4.67
2017-09-07T07:26:53.615Z,5.10
2017-09-07T07:29:20.029Z,4.33
2017-09-07T07:31:46.425Z,5.80
2017-09-07T07:34:12.792Z,7.10
2017-09-07T07:36:39.890Z,5.20
2017-09-07T07:39:06.596Z,4.23
2017-09-07T07:41:32.917Z,4.70
2017-09-07T07:43:59.285Z,4.10
2017-09-07T07:46:25.712Z,3.87
2017-09-07T07:48:52.079Z,4.07
2017-09-07T07:51:19.199Z,5.07
2017-09-07T07:53:45.544Z,4.43
2017-09-07T07:56:11.928Z,4.93
2017-09-07T07:58:38.307Z,4.40
2017-09-07T08:01:04.698Z,4.43
2017-09-07T08:03:31.074Z,5.07
2017-09-07T08:05:57.840Z,4.27
2017-09-07T08:08:24.177Z,5.83
2017-09-07T08:10:50.614Z,4.27
2017-09-07T08:13:16.994Z,3.73
2017-09-07T08:15:43.330Z,4.90
2017-09-07T08:18:09.711Z,4.70
2017-09-07T08:20:36.127Z,5.00
2017-09-07T08:23:02.512Z,4.27
2017-09-07T08:25:28.874Z,4.40
2017-09-07T08:27:55.569Z,4.43
2017-09-07T08:30:21.930Z,4.33
2017-09-07T08:32:48.301Z,5.20
2017-09-07T08:35:14.720Z,4.10
2017-09-07T08:37:41.089Z,4.77
2017-09-07T08:40:07.514Z,4.83
2017-09-07T08:42:33.925Z,4.43
2017-09-07T08:45:00.306Z,4.27
2017-09-07T08:47:27.489Z,5.07
2017-09-07T08:49:54.286Z,5.00
2017-09-07T08:52:20.644Z,3.93
2017-09-07T08:54:47.767Z,5.03
2017-09-07T08:57:14.142Z,4.10
2017-09-07T08:59:40.558Z,3.57
2017-09-07T09:02:06.957Z,5.07
2017-09-07T09:04:34.060Z,4.40
2017-09-07T09:07:00.734Z,3.63
2017-09-07T09:09:27.094Z,4.30
2017-09-07T09:11:53.492Z,4.80
2017-09-07T09:14:19.864Z,4.23
2017-09-07T09:16:46.254Z,3.77
2017-09-07T09:19:12.689Z,3.20
2017-09-07T09:21:39.807Z,3.90
2017-09-07T09:24:06.466Z,3.80
2017-09-07T09:26:39.718Z,3.53
2017-09-07T09:29:06.105Z,3.77
2017-09-07T09:31:32.504Z,3.90
2017-09-07T09:33:58.857Z,3.67
2017-09-07T09:36:25.254Z,3.63
2017-09-07T09:38:51.659Z,2.97
2017-09-07T09:41:18.051Z,3.50
2017-09-07T09:43:45.187Z,3.10
2017-09-07T09:46:11.625Z,3.40
2017-09-07T09:48:38.065Z,3.87
2017-09-07T09:51:04.815Z,3.23
2017-09-07T09:53:31.217Z,4.10
2017-09-07T09:55:58.321Z,3.80
2017-09-07T09:58:24.682Z,3.97
2017-09-07T10:00:51.103Z,3.87
2017-09-07T10:03:17.454Z,3.70
2017-09-07T10:05:43.824Z,3.20
2017-09-07T10:08:10.226Z,3.50
2017-09-07T10:10:37.332Z,3.83
2017-09-07T10:13:10.854Z,3.20
2017-09-07T10:15:37.214Z,3.90
2017-09-07T10:18:03.605Z,4.90
2017-09-07T10:20:29.999Z,3.07
2017-09-07T10:22:56.339Z,3.87
2017-09-07T10:25:22.731Z,3.63
2017-09-07T10:27:49.918Z,3.77
2017-09-07T10:30:16.306Z,3.43
2017-09-07T10:32:42.742Z,3.00
2017-09-07T10:35:09.862Z,3.00
2017-09-07T10:37:36.224Z,3.70
2017-09-07T10:40:03.318Z,3.63
2017-09-07T10:42:29.765Z,3.47
2017-09-07T10:44:56.128Z,4.50
2017-09-07T10:47:22.944Z,4.00
2017-09-07T10:49:49.300Z,3.57
2017-09-07T10:52:15.675Z,4.20
2017-09-07T10:54:42.098Z,4.30
2017-09-07T10:57:08.507Z,2.90
2017-09-07T10:59:34.847Z,3.73
2017-09-07T11:02:01.214Z,3.20
2017-09-07T11:04:27.601Z,3.40
2017-09-07T11:06:53.969Z,3.20
2017-09-07T11:09:20.330Z,2.70
2017-09-07T11:11:46.772Z,3.20
2017-09-07T11:14:13.481Z,2.60
2017-09-07T11:16:39.851Z,3.13
2017-09-07T11:19:06.225Z,3.37
2017-09-07T11:21:32.610Z,3.20
2017-09-07T11:23:58.975Z,4.13
2017-09-07T11:26:25.348Z,3.20
2017-09-07T11:28:51.722Z,3.23
2017-09-07T11:31:18.145Z,3.27
2017-09-07T11:33:44.498Z,3.83
2017-09-07T11:36:10.862Z,3.27
2017-09-07T11:38:37.999Z,3.00
2017-09-07T11:43:37.886Z,2.97
2017-09-07T11:46:04.281Z,3.40
2017-09-07T11:48:30.778Z,3.10
2017-09-07T11:50:57.174Z,4.53
2017-09-07T11:53:23.569Z,3.90
2017-09-07T11:55:50.690Z,3.37
2017-09-07T11:58:17.084Z,4.00
2017-09-07T12:00:43.486Z,4.30
2017-09-07T12:03:10.192Z,2.80
2017-09-07T12:05:36.567Z,3.20
2017-09-07T12:08:02.961Z,2.80
2017-09-07T12:10:29.382Z,4.93
2017-09-07T12:12:55.731Z,3.90
2017-09-07T12:15:22.877Z,3.80
2017-09-07T12:17:49.990Z,3.20
2017-09-07T12:20:16.693Z,3.77
2017-09-07T12:22:43.047Z,3.10
2017-09-07T12:25:09.420Z,3.63
2017-09-07T12:27:36.549Z,4.30
2017-09-07T12:30:02.952Z,3.20
2017-09-07T12:32:29.359Z,4.93
2017-09-07T12:34:55.720Z,4.27
2017-09-07T12:37:22.090Z,4.13
2017-09-07T12:39:49.190Z,4.07
2017-09-07T12:42:15.851Z,4.10
2017-09-07T12:44:42.223Z,4.33
2017-09-07T12:47:08.657Z,4.23
2017-09-07T12:49:35.061Z,5.30
2017-09-07T12:52:02.161Z,4.20
2017-09-07T12:54:28.541Z,5.40
2017-09-07T12:56:55.641Z,4.83
2017-09-07T12:59:22.008Z,3.90
2017-09-07T13:01:48.395Z,4.33
2017-09-07T13:04:15.043Z,4.00
2017-09-07T13:06:41.419Z,4.67
2017-09-07T13:09:08.519Z,5.00
2017-09-07T13:11:34.921Z,3.60
2017-09-07T13:14:01.300Z,4.83
2017-09-07T13:16:28.414Z,4.00
2017-09-07T13:18:54.756Z,4.17
2017-09-07T13:21:21.101Z,3.47
2017-09-07T13:23:48.194Z,4.23
2017-09-07T13:26:14.917Z,3.87
2017-09-07T13:28:41.309Z,4.13
2017-09-07T13:31:07.671Z,4.50
2017-09-07T13:33:34.030Z,4.03
2017-09-07T13:36:00.390Z,4.00
2017-09-07T13:38:27.560Z,4.07
2017-09-07T13:40:53.933Z,3.60
2017-09-07T13:43:20.290Z,3.23
2017-09-07T13:45:46.683Z,3.20
2017-09-07T13:48:13.499Z,3.47
2017-09-07T13:50:39.858Z,3.60
2017-09-07T13:53:06.190Z,2.77
2017-09-07T13:55:32.587Z,3.03
2017-09-07T13:57:59.697Z,3.60
2017-09-07T14:00:26.092Z,3.97
2017-09-07T14:02:52.446Z,2.90
2017-09-07T14:05:18.835Z,3.40
2017-09-07T14:07:45.943Z,4.70
2017-09-07T14:10:12.325Z,4.10
2017-09-07T14:12:39.393Z,3.80
2017-09-07T14:15:06.085Z,2.90
2017-09-07T14:17:33.197Z,3.83
2017-09-07T14:19:59.549Z,3.53
2017-09-07T14:22:25.922Z,2.73
2017-09-07T14:24:52.367Z,2.90
2017-09-07T14:27:18.753Z,3.70
2017-09-07T14:29:45.112Z,4.17
2017-09-07T14:32:11.489Z,3.20
2017-09-07T14:34:37.827Z,3.73
2017-09-07T14:37:04.509Z,3.70
2017-09-07T14:39:30.883Z,3.37
2017-09-07T14:41:57.325Z,3.40
2017-09-07T14:44:23.747Z,3.17
2017-09-07T14:46:50.115Z,3.47
2017-09-07T14:49:17.270Z,3.47
2017-09-07T14:51:43.707Z,3.37
2017-09-07T14:54:10.088Z,3.43
2017-09-07T14:56:36.480Z,3.20
2017-09-07T14:59:03.274Z,3.93
2017-09-07T15:01:29.598Z,3.47
2017-09-07T15:03:56.011Z,4.30
2017-09-07T15:06:22.404Z,3.73
2017-09-07T15:08:48.801Z,3.60
2017-09-07T15:11:15.926Z,4.13
2017-09-07T15:13:42.290Z,3.53
2017-09-07T15:16:08.657Z,3.83
2017-09-07T15:18:35.025Z,3.70
2017-09-07T15:21:01.774Z,3.47
2017-09-07T15:23:28.150Z,3.30
2017-09-07T15:25:54.526Z,3.67
2017-09-07T15:28:20.826Z,4.57
2017-09-07T15:30:47.247Z,3.80
2017-09-07T15:33:13.618Z,3.60
2017-09-07T15:35:40.020Z,3.83
2017-09-07T15:38:06.392Z,4.10
2017-09-07T15:40:33.425Z,3.40
2017-09-07T15:43:00.138Z,3.63
2017-09-07T15:45:26.501Z,3.00
2017-09-07T15:47:53.677Z,3.03
2017-09-07T15:50:20.055Z,3.17
2017-09-07T15:52:46.479Z,4.20
2017-09-07T15:55:12.909Z,3.40
2017-09-07T15:57:39.339Z,3.60
2017-09-07T16:00:05.764Z,3.10
2017-09-07T16:02:32.141Z,3.90
2017-09-07T16:04:58.806Z,2.97
2017-09-07T16:07:25.162Z,3.10
2017-09-07T16:09:51.572Z,3.60
2017-09-07T16:12:17.970Z,2.90
2017-09-07T16:14:44.347Z,3.03
2017-09-07T16:17:10.775Z,3.30
2017-09-07T16:19:37.193Z,3.60
2017-09-07T16:22:03.654Z,2.93
2017-09-07T16:24:36.972Z,3.43
2017-09-07T16:27:03.286Z,3.47
2017-09-07T16:32:02.912Z,3.40
2017-09-07T16:34:30.042Z,3.00
2017-09-07T16:36:56.405Z,3.90
2017-09-07T16:39:23.542Z,3.10
2017-09-07T16:41:50.274Z,4.10
2017-09-07T16:44:16.663Z,3.50
2017-09-07T16:46:43.041Z,3.80
2017-09-07T16:49:09.515Z,3.83
2017-09-07T16:51:35.892Z,3.40
2017-09-07T16:54:02.312Z,3.43
2017-09-07T16:56:28.695Z,3.10
2017-09-07T16:58:55.080Z,3.50
2017-09-07T17:01:21.462Z,3.73
2017-09-07T17:03:47.894Z,3.73
2017-09-07T17:06:14.320Z,4.47
2017-09-07T17:08:40.714Z,2.90
2017-09-07T17:11:07.080Z,4.03
2017-09-07T17:13:33.779Z,3.70
2017-09-07T17:16:00.907Z,3.50
2017-09-07T17:18:27.301Z,3.50
2017-09-07T17:20:53.725Z,4.53
2017-09-07T17:23:20.106Z,3.37
2017-09-07T17:25:46.540Z,4.23
2017-09-07T17:28:12.924Z,3.57
2017-09-07T17:30:39.347Z,3.70
2017-09-07T17:33:05.775Z,3.43
2017-09-07T17:35:32.160Z,3.90
2017-09-07T17:37:58.580Z,4.33
2017-09-07T17:40:25.363Z,4.40
2017-09-07T17:42:51.758Z,4.00
2017-09-07T17:45:18.220Z,3.70
2017-09-07T17:47:45.461Z,4.13
2017-09-07T17:50:11.911Z,3.23
2017-09-07T17:52:39.130Z,3.30
2017-09-07T17:55:05.572Z,4.23
2017-09-07T17:57:31.951Z,3.57
2017-09-07T17:59:58.406Z,3.50
2017-09-07T18:02:25.577Z,4.27
2017-09-07T18:04:52.756Z,4.30
2017-09-07T18:07:19.648Z,3.80
2017-09-07T18:09:46.880Z,3.90
2017-09-07T18:12:13.318Z,4.40
2017-09-07T18:14:39.803Z,3.57
2017-09-07T18:17:07.069Z,3.13
2017-09-07T18:19:33.568Z,4.53
2017-09-07T18:21:59.972Z,4.00
2017-09-07T18:24:26.472Z,4.43
2017-09-07T18:26:52.961Z,4.20
2017-09-07T18:29:19.740Z,3.13
2017-09-07T18:31:46.231Z,4.70
2017-09-07T18:34:12.686Z,4.70
2017-09-07T18:36:39.213Z,5.10
2017-09-07T18:39:05.752Z,5.00
2017-09-07T18:41:32.236Z,5.10
2017-09-07T18:43:58.734Z,5.57
2017-09-07T18:46:25.296Z,8.50
2017-09-07T18:48:51.930Z,10.20
2017-09-07T18:51:18.529Z,12.40
2017-09-07T18:53:45.060Z,18.60
2017-09-07T18:56:11.914Z,19.07
2017-09-07T18:58:38.368Z,16.73
2017-09-07T19:01:04.913Z,16.67
2017-09-07T19:03:32.173Z,13.90
2017-09-07T19:05:58.648Z,13.73
2017-09-07T19:08:25.167Z,10.83
2017-09-07T19:10:51.709Z,8.87
2017-09-07T19:13:18.561Z,7.10
2017-09-07T19:15:45.070Z,7.10
2017-09-07T19:18:12.279Z,6.80
2017-09-07T19:20:38.777Z,6.73
2017-09-07T19:23:05.303Z,6.53
2017-09-07T19:25:31.790Z,7.97
2017-09-07T19:27:58.330Z,8.17
2017-09-07T19:30:24.912Z,6.53
2017-09-07T19:32:51.474Z,7.60
2017-09-07T19:35:18.433Z,7.47
2017-09-07T19:37:44.934Z,7.50
2017-09-07T19:40:11.444Z,6.87
2017-09-07T19:42:38.002Z,7.40
2017-09-07T19:45:04.477Z,7.80
2017-09-07T19:47:31.088Z,6.90
2017-09-07T19:49:57.542Z,7.10
2017-09-07T19:52:24.040Z,6.10
2017-09-07T19:54:50.511Z,5.80
2017-09-07T19:57:17.288Z,9.40
2017-09-07T19:59:43.771Z,6.20
2017-09-07T20:02:10.250Z,6.77
2017-09-07T20:04:36.695Z,6.40
2017-09-07T20:07:03.192Z,6.63
2017-09-07T20:09:30.559Z,6.00
2017-09-07T20:11:57.800Z,6.70
2017-09-07T20:14:25.037Z,7.60
2017-09-07T20:16:52.199Z,6.30
2017-09-07T20:19:19.431Z,7.10
2017-09-07T20:21:45.891Z,6.70
2017-09-07T20:24:12.749Z,6.43
2017-09-07T20:26:39.217Z,7.03
2017-09-07T20:29:05.660Z,7.33
2017-09-07T20:31:32.132Z,6.07
2017-09-07T20:33:59.361Z,6.70
2017-09-07T20:36:25.822Z,6.47
2017-09-07T20:38:52.280Z,6.30
2017-09-07T20:41:18.751Z,6.90
2017-09-07T20:43:45.173Z,6.53
2017-09-07T20:46:11.911Z,6.50
2017-09-07T20:48:38.475Z,6.47
2017-09-07T20:51:04.875Z,7.60
2017-09-07T20:53:31.308Z,7.90
2017-09-07T20:55:57.712Z,8.27
2017-09-07T20:58:24.184Z,7.93
2017-09-07T21:00:51.390Z,7.00
2017-09-07T21:03:17.842Z,7.67
2017-09-07T21:05:44.236Z,6.57
2017-09-07T21:08:10.718Z,7.83
2017-09-07T21:10:37.119Z,6.50
2017-09-07T21:13:03.782Z,6.97
2017-09-07T21:15:30.207Z,7.23
2017-09-07T21:17:57.411Z,7.10
2017-09-07T21:20:23.840Z,7.10
2017-09-07T21:22:50.264Z,6.40
2017-09-07T21:25:16.686Z,6.53
2017-09-07T21:27:43.094Z,6.40
2017-09-07T21:30:10.278Z,7.33
2017-09-07T21:32:36.681Z,6.83
2017-09-07T21:35:03.828Z,5.97
2017-09-07T21:37:31.007Z,6.70
2017-09-07T21:39:57.371Z,6.27
2017-09-07T21:42:23.757Z,6.57
2017-09-07T21:44:50.101Z,6.60
2017-09-07T21:47:16.547Z,6.60
2017-09-07T21:49:42.978Z,7.40
2017-09-07T21:52:09.671Z,8.43
2017-09-07T21:54:36.763Z,7.60
2017-09-07T21:57:03.858Z,7.40
2017-09-07T21:59:30.228Z,7.50
2017-09-07T22:01:56.592Z,9.03
2017-09-07T22:04:23.014Z,6.47
2017-09-07T22:06:49.376Z,7.20
2017-09-07T22:09:16.496Z,6.70
2017-09-07T22:11:42.885Z,5.80
2017-09-07T22:14:09.516Z,5.70
2017-09-07T22:16:35.866Z,7.03
2017-09-07T22:19:02.259Z,6.20
2017-09-07T22:21:29.372Z,5.73
2017-09-07T22:23:55.729Z,6.40
2017-09-07T22:26:22.851Z,6.27
2017-09-07T22:28:49.258Z,6.27
2017-09-07T22:31:15.627Z,7.20
2017-09-07T22:33:42.015Z,7.37
2017-09-07T22:36:08.390Z,6.43
2017-09-07T22:38:34.782Z,6.10
2017-09-07T22:41:01.442Z,6.03
2017-09-07T22:43:27.826Z,6.80
2017-09-07T22:45:54.243Z,6.90
2017-09-07T22:48:20.687Z,6.90
2017-09-07T22:50:47.049Z,7.33
2017-09-07T22:53:13.450Z,6.80
2017-09-07T22:55:39.813Z,7.10
2017-09-07T22:58:06.189Z,7.22
2017-09-07T23:00:32.557Z,7.47
2017-09-07T23:02:59.962Z,6.67
2017-09-07T23:05:27.063Z,7.17
2017-09-07T23:07:53.473Z,6.50
2017-09-07T23:10:19.864Z,6.93
2017-09-07T23:12:46.247Z,6.33
2017-09-07T23:15:12.594Z,6.90
2017-09-07T23:17:38.948Z,6.50
2017-09-07T23:20:05.299Z,6.67
2017-09-07T23:22:32.365Z,6.70
2017-09-07T23:24:59.044Z,6.90
2017-09-07T23:27:25.406Z,6.50
2017-09-07T23:29:52.503Z,6.70
2017-09-07T23:32:18.928Z,7.40
2017-09-07T23:34:45.323Z,7.63
2017-09-07T23:37:11.703Z,6.60
2017-09-07T23:39:38.128Z,6.82
2017-09-07T23:42:04.472Z,6.22
2017-09-07T23:44:30.839Z,6.90
2017-09-07T23:46:58.267Z,6.37
2017-09-07T23:49:26.085Z,6.20
2017-09-07T23:51:52.502Z,6.70
2017-09-07T23:54:18.879Z,6.18
2017-09-07T23:56:45.278Z,5.85
2017-09-07T23:59:11.655Z,6.20
